createdAt,value
2023-03-31T00:00:11.888Z,8.84
2023-03-31T00:05:04.941Z,8.86
2023-03-31T00:10:10.323Z,8.92
2023-03-31T00:15:09.445Z,8.98
2023-03-31T00:20:06.099Z,9.03
2023-03-31T00:24:58.949Z,9.07
2023-03-31T00:29:53.186Z,9.10
2023-03-31T00:34:47.087Z,9.09
2023-03-31T00:39:40.398Z,9.12
2023-03-31T00:44:34.521Z,9.14
2023-03-31T00:49:36.484Z,9.17
2023-03-31T00:54:31.113Z,9.20
2023-03-31T00:59:28.748Z,9.22
2023-03-31T01:04:22.886Z,9.24
2023-03-31T01:09:17.080Z,9.25
2023-03-31T01:14:11.130Z,9.25
2023-03-31T01:19:03.948Z,9.26
2023-03-31T01:24:38.069Z,9.27
2023-03-31T01:30:16.287Z,9.31
2023-03-31T01:35:28.521Z,9.32
2023-03-31T01:40:39.496Z,9.33
2023-03-31T01:45:51.139Z,9.35
2023-03-31T01:50:49.903Z,9.36
2023-03-31T01:55:52.963Z,9.36
2023-03-31T02:01:01.999Z,9.36
2023-03-31T02:05:58.404Z,9.37
2023-03-31T02:10:53.831Z,9.37
2023-03-31T02:15:58.140Z,9.37
2023-03-31T02:20:54.866Z,9.36
2023-03-31T02:25:54.822Z,9.36
2023-03-31T02:30:56.271Z,9.35
2023-03-31T02:35:49.262Z,9.35
2023-03-31T02:40:42.077Z,9.34
2023-03-31T02:45:45.634Z,9.33
2023-03-31T02:51:07.686Z,9.33
2023-03-31T02:56:39.280Z,9.32
2023-03-31T03:01:47.373Z,9.31
2023-03-31T03:06:46.131Z,9.31
2023-03-31T03:11:53.505Z,9.30
2023-03-31T03:16:51.817Z,9.26
2023-03-31T03:21:46.132Z,9.23
2023-03-31T03:26:38.914Z,9.20
2023-03-31T03:31:33.793Z,9.19
2023-03-31T03:36:27.047Z,9.20
2023-03-31T03:41:19.939Z,9.20
2023-03-31T03:46:13.533Z,9.20
2023-03-31T03:51:07.458Z,9.20
2023-03-31T03:56:01.721Z,9.21
2023-03-31T04:00:54.583Z,9.20
2023-03-31T04:05:49.999Z,9.19
2023-03-31T04:10:50.738Z,9.17
2023-03-31T04:15:43.976Z,9.14
2023-03-31T04:20:38.030Z,9.07
2023-03-31T04:25:30.881Z,8.98
2023-03-31T04:30:30.940Z,8.95
2023-03-31T04:35:25.550Z,8.90
2023-03-31T04:40:18.648Z,8.81
2023-03-31T04:45:14.580Z,8.72
2023-03-31T04:50:11.509Z,8.69
2023-03-31T04:55:07.605Z,8.75
2023-03-31T05:00:00.459Z,8.75
2023-03-31T05:04:53.644Z,8.72
2023-03-31T05:09:47.105Z,8.68
2023-03-31T05:14:40.890Z,8.66
2023-03-31T05:19:33.795Z,8.65
2023-03-31T05:24:28.381Z,8.75
2023-03-31T05:29:22.081Z,9.08
2023-03-31T05:34:16.430Z,9.26
2023-03-31T05:39:09.618Z,9.40
2023-03-31T05:44:02.535Z,9.54
2023-03-31T05:48:56.542Z,9.66
2023-03-31T05:53:50.389Z,9.77
2023-03-31T05:58:43.409Z,9.87
2023-03-31T06:03:38.028Z,9.94
2023-03-31T06:08:31.112Z,10.06
2023-03-31T06:13:24.734Z,10.23
2023-03-31T06:18:17.626Z,10.33
2023-03-31T06:23:12.813Z,10.37
2023-03-31T06:28:06.414Z,10.40
2023-03-31T06:32:59.434Z,10.47
2023-03-31T06:37:52.580Z,10.55
2023-03-31T06:42:45.704Z,10.61
2023-03-31T06:47:38.952Z,10.69
2023-03-31T06:52:33.390Z,10.81
2023-03-31T06:57:26.186Z,11.28
2023-03-31T07:02:19.007Z,11.85
2023-03-31T07:07:11.872Z,12.13
2023-03-31T07:12:05.916Z,12.20
2023-03-31T07:16:59.344Z,12.18
2023-03-31T07:21:53.307Z,12.47
2023-03-31T07:26:46.119Z,12.75
2023-03-31T07:31:39.001Z,12.90
2023-03-31T07:36:32.620Z,13.05
2023-03-31T07:41:26.514Z,13.28
2023-03-31T07:46:28.303Z,14.97
2023-03-31T07:51:23.628Z,19.02
2023-03-31T07:56:18.152Z,19.48
2023-03-31T08:01:12.418Z,18.11
2023-03-31T08:06:05.858Z,17.10
2023-03-31T08:10:59.194Z,16.52
2023-03-31T08:15:53.417Z,16.31
2023-03-31T08:20:50.013Z,16.26
2023-03-31T08:25:43.209Z,16.02
2023-03-31T08:30:38.168Z,15.69
2023-03-31T08:35:30.998Z,15.42
2023-03-31T08:40:27.046Z,14.95
2023-03-31T08:45:26.726Z,14.63
2023-03-31T08:50:28.612Z,14.37
2023-03-31T08:55:29.341Z,14.01
2023-03-31T09:00:22.306Z,13.70
2023-03-31T09:05:15.131Z,13.81
2023-03-31T09:10:14.039Z,14.06
2023-03-31T09:15:25.811Z,14.42
2023-03-31T09:20:18.654Z,14.87
2023-03-31T09:25:21.162Z,15.35
2023-03-31T09:30:16.918Z,15.96
2023-03-31T09:35:22.860Z,16.29
2023-03-31T09:40:28.376Z,16.78
2023-03-31T09:45:22.071Z,17.23
2023-03-31T09:50:16.775Z,17.18
2023-03-31T09:55:38.407Z,16.99
2023-03-31T10:00:32.358Z,16.41
2023-03-31T10:05:31.043Z,16.15
2023-03-31T10:10:32.378Z,16.32
2023-03-31T10:15:29.528Z,16.98
2023-03-31T10:20:33.635Z,17.97
2023-03-31T10:25:29.793Z,17.82
2023-03-31T10:30:25.900Z,18.29
2023-03-31T10:35:34.715Z,18.63
2023-03-31T10:40:30.632Z,18.47
2023-03-31T10:45:37.326Z,18.92
2023-03-31T10:50:34.423Z,18.85
2023-03-31T10:55:37.537Z,18.20
2023-03-31T11:00:38.045Z,17.83
2023-03-31T11:05:44.437Z,18.18
2023-03-31T11:10:59.302Z,18.01
2023-03-31T11:16:03.932Z,18.02
2023-03-31T11:21:27.034Z,18.21
2023-03-31T11:26:46.576Z,18.30
2023-03-31T11:31:42.338Z,18.37
2023-03-31T11:36:52.482Z,18.43
2023-03-31T11:41:51.885Z,18.91
2023-03-31T11:46:49.527Z,19.31
2023-03-31T11:51:54.584Z,19.14
2023-03-31T11:56:47.835Z,19.65
2023-03-31T12:01:54.130Z,19.47
2023-03-31T12:06:49.453Z,19.37
2023-03-31T12:12:06.568Z,19.62
2023-03-31T12:17:09.411Z,19.12
2023-03-31T12:22:12.635Z,18.41
2023-03-31T12:27:41.811Z,17.98
2023-03-31T12:32:39.640Z,17.84
2023-03-31T12:37:54.468Z,17.99
2023-03-31T12:42:47.343Z,18.02
2023-03-31T12:47:46.393Z,18.20
2023-03-31T12:53:11.763Z,18.79
2023-03-31T12:58:27.000Z,18.73
2023-03-31T13:03:46.787Z,18.47
2023-03-31T13:08:59.446Z,17.92
2023-03-31T13:14:04.923Z,17.47
2023-03-31T13:18:58.616Z,17.16
2023-03-31T13:23:52.511Z,17.00
2023-03-31T13:28:45.327Z,16.95
2023-03-31T13:33:57.155Z,16.83
2023-03-31T13:39:27.454Z,16.52
2023-03-31T13:44:42.302Z,16.14
2023-03-31T13:50:00.035Z,15.80
2023-03-31T13:55:02.139Z,15.58
2023-03-31T14:00:14.534Z,15.47
2023-03-31T14:05:35.376Z,15.73
2023-03-31T14:10:38.248Z,16.44
2023-03-31T14:15:32.401Z,16.65
2023-03-31T14:20:53.505Z,16.48
2023-03-31T14:26:17.071Z,16.30
2023-03-31T14:31:35.614Z,16.64
2023-03-31T14:37:01.846Z,17.33
2023-03-31T14:41:57.018Z,17.12
2023-03-31T14:46:49.854Z,16.67
2023-03-31T14:51:45.854Z,16.26
2023-03-31T14:56:41.618Z,15.89
2023-03-31T15:01:38.072Z,15.58
2023-03-31T15:06:33.223Z,15.26
2023-03-31T15:11:28.983Z,14.87
2023-03-31T15:16:42.226Z,14.49
2023-03-31T15:21:39.178Z,14.11
2023-03-31T15:26:41.727Z,13.76
2023-03-31T15:31:34.968Z,13.58
2023-03-31T15:36:31.784Z,13.49
2023-03-31T15:46:52.038Z,13.19
2023-03-31T15:51:47.956Z,12.82
2023-03-31T15:56:46.296Z,12.46
2023-03-31T16:01:45.589Z,12.22
2023-03-31T16:06:59.801Z,12.02
2023-03-31T16:11:56.801Z,11.77
2023-03-31T16:16:55.822Z,11.57
2023-03-31T16:21:52.833Z,11.44
2023-03-31T16:26:46.115Z,11.38
2023-03-31T16:31:41.597Z,11.36
2023-03-31T16:36:34.758Z,11.27
2023-03-31T16:41:30.129Z,11.20
2023-03-31T16:46:24.825Z,11.15
2023-03-31T16:51:17.921Z,11.08
2023-03-31T16:56:12.879Z,11.00
2023-03-31T17:01:07.310Z,10.93
2023-03-31T17:06:07.098Z,10.90
2023-03-31T17:11:07.052Z,10.87
2023-03-31T17:16:13.464Z,10.84
2023-03-31T17:21:13.805Z,10.77
2023-03-31T17:26:09.772Z,10.72
2023-03-31T17:31:03.456Z,10.67
2023-03-31T17:35:59.560Z,10.60
2023-03-31T17:40:52.451Z,10.59
2023-03-31T17:45:45.250Z,10.53
2023-03-31T17:50:38.449Z,10.46
2023-03-31T17:55:31.608Z,10.42
2023-03-31T18:00:24.618Z,10.39
2023-03-31T18:05:18.416Z,10.35
2023-03-31T18:10:12.169Z,10.31
2023-03-31T18:15:07.142Z,10.32
2023-03-31T18:20:00.275Z,10.31
2023-03-31T18:24:53.147Z,10.29
2023-03-31T18:29:46.222Z,10.29
2023-03-31T18:34:39.214Z,10.28
2023-03-31T18:39:32.183Z,10.26
2023-03-31T18:44:25.094Z,10.24
2023-03-31T18:49:20.117Z,10.23
2023-03-31T18:54:13.205Z,10.21
2023-03-31T18:59:06.026Z,10.17
2023-03-31T19:03:59.186Z,10.14
2023-03-31T19:08:52.097Z,10.13
2023-03-31T19:13:45.457Z,10.14
2023-03-31T19:18:38.648Z,10.10
2023-03-31T19:23:32.850Z,10.08
2023-03-31T19:28:26.818Z,10.06
2023-03-31T19:33:21.793Z,10.04
2023-03-31T19:38:16.118Z,10.03
2023-03-31T19:43:20.925Z,10.04
2023-03-31T19:48:14.054Z,10.05
2023-03-31T19:53:07.039Z,10.04
2023-03-31T19:57:59.830Z,10.00
2023-03-31T20:02:52.812Z,9.99
2023-03-31T20:07:46.174Z,9.96
2023-03-31T20:12:39.454Z,9.91
2023-03-31T20:17:32.236Z,9.84
2023-03-31T20:22:27.170Z,9.81
2023-03-31T20:27:20.210Z,9.79
2023-03-31T20:32:13.051Z,9.78
2023-03-31T20:37:05.863Z,9.79
2023-03-31T20:42:06.399Z,9.77
2023-03-31T20:47:02.454Z,9.74
2023-03-31T20:51:56.679Z,9.71
2023-03-31T20:56:50.580Z,9.69
2023-03-31T21:01:45.329Z,9.67
2023-03-31T21:06:44.301Z,9.64
2023-03-31T21:11:37.262Z,9.64
2023-03-31T21:16:30.160Z,9.63
2023-03-31T21:21:25.095Z,9.64
2023-03-31T21:26:18.139Z,9.66
2023-03-31T21:31:22.719Z,9.67
2023-03-31T21:36:18.640Z,9.70
2023-03-31T21:41:23.436Z,9.73
2023-03-31T21:46:19.275Z,9.74
2023-03-31T21:51:13.535Z,9.76
2023-03-31T21:56:06.940Z,9.75
2023-03-31T22:01:05.360Z,9.73
2023-03-31T22:05:59.600Z,9.73
2023-03-31T22:10:53.267Z,9.75
2023-03-31T22:15:46.852Z,9.75
2023-03-31T22:20:41.198Z,9.72
2023-03-31T22:25:34.778Z,9.70
2023-03-31T22:30:29.699Z,9.70
2023-03-31T22:35:23.042Z,9.70
2023-03-31T22:40:15.906Z,9.71
2023-03-31T22:45:09.411Z,9.71
2023-03-31T22:50:02.202Z,9.72
2023-03-31T22:54:55.088Z,9.72
2023-03-31T22:59:48.094Z,9.71
2023-03-31T23:04:40.889Z,9.69
2023-03-31T23:09:35.079Z,9.67
2023-03-31T23:14:28.295Z,9.66
2023-03-31T23:19:21.066Z,9.64
2023-03-31T23:24:13.911Z,9.65
2023-03-31T23:29:06.752Z,9.64
2023-03-31T23:34:00.603Z,9.64
2023-03-31T23:38:55.663Z,9.64
2023-03-31T23:43:48.483Z,9.63
2023-03-31T23:48:41.970Z,9.62
2023-03-31T23:53:36.193Z,9.60
2023-03-31T23:58:33.082Z,9.57
